Time;durP1;ratioP1;P1;durP2;ratioP2;P2;SDS_P1;SDS_P2;PMS_P1;PMS_P2;Temp;Humidity;BMP_temperature;BMP_pressure;BME280_temperature;BME280_humidity;BME280_pressure;Samples;Min_cycle;Max_cycle;Signal;HPM_P1;HPM_P2
2023/07/18 00:01:41;;;;;;;2.17;1.70;;;14.40;99.90;;;;;;4995660;28;20296;-68
2023/07/18 00:04:07;;;;;;;5.83;3.10;;;14.40;99.90;;;;;;4995539;28;20869;-69
2023/07/18 00:06:33;;;;;;;4.37;2.50;;;14.30;99.90;;;;;;4995119;28;20267;-69
2023/07/18 00:08:59;;;;;;;3.23;2.27;;;14.30;99.90;;;;;;4995389;28;20602;-69
2023/07/18 00:11:24;;;;;;;6.93;2.47;;;14.30;99.90;;;;;;4995380;28;20404;-68
2023/07/18 00:13:50;;;;;;;2.50;2.30;;;14.30;99.90;;;;;;4995368;28;20186;-69
2023/07/18 00:16:15;;;;;;;5.07;2.53;;;14.30;99.90;;;;;;4995043;28;20172;-68
2023/07/18 00:18:41;;;;;;;9.27;2.70;;;14.40;99.90;;;;;;4995133;28;20193;-68
2023/07/18 00:21:07;;;;;;;5.87;2.57;;;14.30;99.90;;;;;;4995130;28;20200;-68
2023/07/18 00:23:33;;;;;;;4.40;2.33;;;14.30;99.90;;;;;;4994920;28;20165;-68
2023/07/18 00:25:59;;;;;;;4.87;2.43;;;14.30;99.90;;;;;;4994813;28;20415;-69
2023/07/18 00:28:25;;;;;;;5.03;2.53;;;14.30;99.90;;;;;;4995109;28;20428;-69
2023/07/18 00:30:50;;;;;;;3.07;2.57;;;14.30;99.90;;;;;;4995076;28;20427;-68
2023/07/18 00:33:16;;;;;;;3.53;2.30;;;14.30;99.90;;;;;;4995015;28;20202;-68
2023/07/18 00:35:43;;;;;;;5.47;2.43;;;14.30;99.90;;;;;;4994718;28;20169;-68
2023/07/18 00:38:11;;;;;;;3.87;2.40;;;14.40;99.90;;;;;;4994808;28;20193;-68
2023/07/18 00:40:40;;;;;;;3.60;2.60;;;14.40;99.90;;;;;;4994796;28;20946;-69
2023/07/18 00:43:12;;;;;;;3.30;2.00;;;14.30;99.90;;;;;;4994843;28;20447;-69
2023/07/18 00:45:38;;;;;;;3.37;2.30;;;14.30;99.90;;;;;;4994576;28;20401;-69
2023/07/18 00:48:05;;;;;;;2.67;2.40;;;14.20;99.90;;;;;;4994600;28;20975;-69
2023/07/18 00:50:31;;;;;;;2.47;2.07;;;14.20;99.90;;;;;;4994760;28;20170;-68
2023/07/18 00:52:56;;;;;;;2.97;2.60;;;14.10;99.90;;;;;;4994705;28;20407;-69
2023/07/18 00:55:22;;;;;;;3.57;2.50;;;14.00;99.90;;;;;;4993201;28;20396;-68
2023/07/18 00:57:48;;;;;;;4.37;2.83;;;14.00;99.90;;;;;;4994508;28;20185;-69
2023/07/18 01:00:16;;;;;;;1.83;1.73;;;14.00;99.90;;;;;;4994451;28;20663;-69
2023/07/18 01:02:43;;;;;;;2.87;2.50;;;14.00;99.90;;;;;;4994310;28;20406;-69
2023/07/18 01:05:10;;;;;;;3.67;2.43;;;14.00;99.90;;;;;;4994118;28;20406;-68
2023/07/18 01:07:39;;;;;;;4.63;2.27;;;13.90;99.90;;;;;;4994242;28;20420;-69
2023/07/18 01:10:23;;;;;;;4.73;2.50;;;14.00;99.90;;;;;;4994215;28;20461;-68
2023/07/18 01:12:56;;;;;;;2.63;1.90;;;14.00;99.90;;;;;;4994365;28;20474;-68
2023/07/18 01:15:23;;;;;;;2.23;1.97;;;14.00;99.90;;;;;;4993971;28;20400;-69
2023/07/18 01:17:49;;;;;;;4.47;2.53;;;13.90;99.90;;;;;;4994141;28;20459;-69
2023/07/18 01:20:21;;;;;;;3.53;2.43;;;13.90;99.90;;;;;;4994081;28;20458;-69
2023/07/18 01:22:52;;;;;;;3.90;2.70;;;13.90;99.90;;;;;;4994216;28;20402;-69
2023/07/18 01:25:18;;;;;;;3.20;2.43;;;13.80;99.90;;;;;;4993796;28;20396;-69
2023/07/18 01:27:44;;;;;;;3.20;2.33;;;13.80;99.90;;;;;;4993870;28;20424;-68
2023/07/18 01:30:10;;;;;;;4.40;2.87;;;13.80;99.90;;;;;;4993927;28;20408;-69
2023/07/18 01:32:36;;;;;;;4.20;3.23;;;13.80;99.90;;;;;;4993853;28;20446;-69
2023/07/18 01:35:05;;;;;;;4.70;2.37;;;13.70;99.90;;;;;;4991565;28;20630;-69
2023/07/18 01:37:32;;;;;;;3.23;2.30;;;13.70;99.90;;;;;;4993701;28;20173;-69
2023/07/18 01:39:58;;;;;;;4.53;2.80;;;13.70;99.90;;;;;;4993821;28;20389;-69
2023/07/18 01:42:23;;;;;;;5.57;3.10;;;13.70;99.90;;;;;;4993674;28;20999;-69
2023/07/18 01:44:49;;;;;;;3.83;2.60;;;13.70;99.90;;;;;;4993624;28;20504;-68
2023/07/18 01:47:14;;;;;;;6.00;3.00;;;13.70;99.90;;;;;;4992183;28;20259;-68
2023/07/18 01:49:40;;;;;;;3.87;2.53;;;13.70;99.90;;;;;;4993475;28;20239;-69
2023/07/18 01:52:06;;;;;;;3.63;2.40;;;13.60;99.90;;;;;;4993579;28;20169;-68
2023/07/18 01:54:31;;;;;;;5.50;2.47;;;13.50;99.90;;;;;;4993523;28;20534;-68
2023/07/18 01:56:57;;;;;;;4.43;2.30;;;13.60;99.90;;;;;;4993213;28;20204;-69
2023/07/18 01:59:22;;;;;;;2.97;2.53;;;13.50;99.90;;;;;;4993286;28;20196;-68
2023/07/18 02:01:48;;;;;;;2.83;2.50;;;13.50;99.90;;;;;;4993312;28;20201;-69
2023/07/18 02:04:14;;;;;;;8.03;3.10;;;13.50;99.90;;;;;;4993121;28;20529;-69
2023/07/18 02:06:40;;;;;;;4.40;2.63;;;13.50;99.90;;;;;;4992913;28;20230;-68
2023/07/18 02:09:07;;;;;;;5.43;3.27;;;13.30;99.90;;;;;;4993149;28;20743;-68
2023/07/18 02:11:32;;;;;;;4.80;3.30;;;13.30;99.90;;;;;;4993229;28;20742;-68
2023/07/18 02:13:58;;;;;;;3.53;2.40;;;13.30;99.90;;;;;;4993112;28;20419;-68
2023/07/18 02:16:23;;;;;;;6.83;2.80;;;13.20;99.90;;;;;;4992861;28;20176;-68
2023/07/18 02:18:49;;;;;;;3.30;2.63;;;13.20;99.90;;;;;;4993096;28;20188;-68
2023/07/18 02:21:14;;;;;;;3.30;2.70;;;13.20;99.90;;;;;;4992887;28;20200;-68
2023/07/18 02:23:40;;;;;;;6.10;2.73;;;13.10;99.90;;;;;;4992944;28;20169;-69
2023/07/18 02:26:05;;;;;;;2.30;2.07;;;13.10;99.90;;;;;;4992463;28;20610;-68
2023/07/18 02:28:31;;;;;;;3.53;2.50;;;13.20;99.90;;;;;;4992853;28;20220;-68
2023/07/18 02:30:57;;;;;;;3.83;3.13;;;13.20;99.90;;;;;;4992918;28;20169;-68
2023/07/18 02:33:23;;;;;;;3.80;2.20;;;13.20;99.90;;;;;;4991704;28;20173;-67
2023/07/18 02:35:50;;;;;;;4.20;2.60;;;13.20;99.90;;;;;;4992448;28;20491;-67
2023/07/18 02:38:15;;;;;;;2.83;2.53;;;13.10;99.90;;;;;;4992683;28;20184;-67
2023/07/18 02:40:44;;;;;;;3.37;2.80;;;13.10;99.90;;;;;;4992677;28;20447;-67
2023/07/18 02:43:09;;;;;;;3.60;2.60;;;13.10;99.90;;;;;;4992784;28;20295;-67
2023/07/18 02:45:35;;;;;;;3.80;2.67;;;13.00;99.90;;;;;;4992430;28;20449;-68
2023/07/18 02:48:01;;;;;;;5.63;3.00;;;13.00;99.90;;;;;;4991177;28;20708;-68
2023/07/18 02:50:26;;;;;;;5.00;2.70;;;13.00;99.90;;;;;;4991394;28;20177;-68
2023/07/18 02:52:52;;;;;;;2.67;2.20;;;12.90;99.90;;;;;;4992651;28;20165;-69
2023/07/18 02:55:17;;;;;;;4.77;2.40;;;12.90;99.90;;;;;;4992410;28;20173;-69
2023/07/18 02:57:43;;;;;;;4.23;2.07;;;12.90;99.90;;;;;;4992551;28;20243;-68
2023/07/18 03:00:19;;;;;;;3.20;2.50;;;12.80;99.90;;;;;;4992664;28;20169;-68
2023/07/18 03:02:48;;;;;;;7.60;3.07;;;12.80;99.90;;;;;;4992622;28;20196;-69
2023/07/18 03:05:14;;;;;;;5.80;3.00;;;12.80;99.90;;;;;;4992305;28;20403;-69
2023/07/18 03:07:40;;;;;;;4.97;2.63;;;12.80;99.90;;;;;;4992403;28;20511;-68
2023/07/18 03:10:06;;;;;;;3.60;2.23;;;12.80;99.90;;;;;;4992562;28;20985;-68
2023/07/18 03:12:31;;;;;;;3.60;2.60;;;12.80;99.90;;;;;;4992498;28;20177;-68
2023/07/18 03:14:57;;;;;;;2.60;2.07;;;12.70;99.90;;;;;;4992316;28;20901;-68
2023/07/18 03:17:23;;;;;;;5.20;2.30;;;12.80;99.90;;;;;;4992305;28;20696;-68
2023/07/18 03:19:48;;;;;;;2.77;2.13;;;12.60;99.90;;;;;;4992535;28;20650;-69
2023/07/18 03:22:14;;;;;;;2.17;1.90;;;12.60;99.90;;;;;;4992314;28;20550;-68
2023/07/18 03:24:40;;;;;;;3.50;2.20;;;12.50;99.90;;;;;;4992535;28;20161;-68
2023/07/18 03:27:07;;;;;;;3.00;2.00;;;12.50;99.90;;;;;;4992219;28;20890;-68
2023/07/18 03:29:33;;;;;;;5.40;3.17;;;12.50;99.90;;;;;;4992418;28;20438;-68
2023/07/18 03:31:59;;;;;;;7.47;2.93;;;12.50;99.90;;;;;;4992323;28;21111;-68
2023/07/18 03:34:25;;;;;;;3.67;2.17;;;12.50;99.90;;;;;;4992340;28;20687;-68
2023/07/18 03:36:50;;;;;;;6.20;2.30;;;12.40;99.90;;;;;;4992040;28;20400;-68
2023/07/18 03:39:16;;;;;;;4.93;2.23;;;12.30;99.90;;;;;;4992313;28;20196;-69
2023/07/18 03:41:42;;;;;;;4.30;2.20;;;12.40;99.90;;;;;;4992193;28;20258;-69
2023/07/18 03:44:08;;;;;;;2.87;2.57;;;12.40;99.90;;;;;;4992277;28;20169;-68
2023/07/18 03:46:34;;;;;;;3.23;2.27;;;12.40;99.90;;;;;;4991905;28;20420;-69
2023/07/18 03:49:00;;;;;;;3.70;2.10;;;12.30;99.90;;;;;;4992018;28;20435;-68
2023/07/18 03:51:25;;;;;;;7.80;2.90;;;12.40;99.90;;;;;;4992246;28;20189;-68
2023/07/18 03:53:51;;;;;;;5.83;2.90;;;12.30;99.90;;;;;;4992373;28;20631;-68
2023/07/18 03:56:16;;;;;;;4.70;2.53;;;12.30;99.90;;;;;;4991880;28;20188;-68
2023/07/18 03:58:42;;;;;;;3.83;2.23;;;12.30;99.90;;;;;;4994518;28;20681;-69
2023/07/18 04:01:09;;;;;;;2.47;2.27;;;12.30;99.90;;;;;;4995555;28;20239;-68
2023/07/18 04:03:36;;;;;;;3.57;1.70;;;12.30;99.90;;;;;;4995641;28;20403;-68
2023/07/18 04:06:02;;;;;;;2.77;2.50;;;12.30;99.90;;;;;;4995213;28;20446;-68
2023/07/18 04:08:28;;;;;;;2.47;1.90;;;12.20;99.90;;;;;;4995517;28;20460;-68
2023/07/18 04:10:55;;;;;;;2.57;2.13;;;12.30;99.90;;;;;;4995527;28;20408;-69
2023/07/18 04:13:21;;;;;;;2.97;2.50;;;12.30;99.90;;;;;;4995377;28;20435;-69
2023/07/18 04:15:46;;;;;;;3.40;2.03;;;12.40;99.90;;;;;;4995149;28;20416;-69
2023/07/18 04:18:12;;;;;;;4.00;2.57;;;12.30;99.90;;;;;;4995296;28;20193;-69
2023/07/18 04:20:37;;;;;;;3.83;2.60;;;12.30;99.90;;;;;;4995171;28;20273;-69
2023/07/18 04:23:03;;;;;;;2.20;1.93;;;12.30;99.90;;;;;;4995361;28;20577;-69
2023/07/18 04:25:32;;;;;;;4.23;2.70;;;12.40;99.90;;;;;;4994932;28;20173;-69
2023/07/18 04:27:58;;;;;;;3.03;2.70;;;12.50;99.90;;;;;;4995129;28;20221;-69
2023/07/18 04:30:23;;;;;;;3.67;2.47;;;12.50;99.90;;;;;;4995118;28;20431;-69
2023/07/18 04:32:49;;;;;;;2.90;2.47;;;12.50;99.90;;;;;;4995166;28;20161;-68
2023/07/18 04:35:14;;;;;;;3.40;2.77;;;12.60;99.90;;;;;;4994731;28;20175;-68
2023/07/18 04:37:40;;;;;;;2.57;2.10;;;12.60;99.90;;;;;;4994887;28;20171;-68
2023/07/18 04:40:08;;;;;;;3.97;2.70;;;12.70;99.90;;;;;;4994934;28;20170;-68
2023/07/18 04:42:34;;;;;;;3.23;2.50;;;12.80;99.90;;;;;;4994721;28;20291;-68
2023/07/18 04:45:00;;;;;;;3.53;2.50;;;12.80;99.90;;;;;;4994676;28;20491;-68
2023/07/18 04:47:26;;;;;;;3.47;3.17;;;12.90;99.90;;;;;;4994734;28;20173;-68
2023/07/18 04:49:52;;;;;;;2.63;2.43;;;12.90;99.90;;;;;;4994729;28;20455;-68
2023/07/18 04:52:18;;;;;;;5.07;2.20;;;12.90;99.90;;;;;;4994816;28;20817;-68
2023/07/18 04:54:43;;;;;;;2.97;1.87;;;13.00;99.90;;;;;;4994614;28;20466;-68
2023/07/18 04:57:09;;;;;;;3.30;2.27;;;13.00;99.90;;;;;;4994379;28;20509;-68
2023/07/18 04:59:34;;;;;;;7.33;2.23;;;13.10;99.90;;;;;;4994462;28;20212;-68
2023/07/18 05:02:00;;;;;;;3.30;2.30;;;13.20;99.90;;;;;;4994494;28;20208;-68
2023/07/18 05:04:25;;;;;;;5.17;2.73;;;13.30;99.90;;;;;;4994474;28;20604;-68
2023/07/18 05:06:51;;;;;;;2.63;2.37;;;13.40;99.90;;;;;;4994116;28;20215;-68
2023/07/18 05:09:17;;;;;;;2.90;1.90;;;13.50;99.90;;;;;;4993300;28;20189;-68
2023/07/18 05:11:42;;;;;;;3.70;2.10;;;13.60;99.90;;;;;;4994364;28;20177;-68
2023/07/18 05:14:08;;;;;;;2.80;2.13;;;13.60;99.90;;;;;;4994338;28;20419;-68
2023/07/18 05:16:33;;;;;;;9.83;1.90;;;13.70;99.90;;;;;;4994029;28;20165;-68
2023/07/18 05:18:59;;;;;;;2.70;2.43;;;13.80;99.90;;;;;;4994136;28;20270;-68
2023/07/18 05:21:24;;;;;;;4.73;2.50;;;13.90;99.90;;;;;;4994149;28;20197;-69
2023/07/18 05:23:51;;;;;;;3.27;2.70;;;14.00;99.90;;;;;;4994302;28;20666;-69
2023/07/18 05:26:16;;;;;;;3.27;2.27;;;14.10;99.90;;;;;;4994074;28;20216;-68
2023/07/18 05:28:42;;;;;;;4.27;2.20;;;14.20;99.90;;;;;;4993938;28;20424;-68
2023/07/18 05:31:09;;;;;;;2.83;1.90;;;14.40;99.90;;;;;;4994193;28;20180;-68
2023/07/18 05:33:35;;;;;;;2.10;1.90;;;14.50;99.90;;;;;;4993899;28;20161;-68
2023/07/18 05:36:00;;;;;;;6.87;4.17;;;14.60;99.90;;;;;;4993694;28;20778;-69
2023/07/18 05:38:26;;;;;;;2.60;2.40;;;14.80;99.90;;;;;;4993929;28;20511;-69
2023/07/18 05:40:51;;;;;;;4.50;2.60;;;15.10;99.90;;;;;;4992700;28;20204;-68
2023/07/18 05:43:18;;;;;;;1.50;1.30;;;15.30;99.90;;;;;;4993814;28;20626;-69
2023/07/18 05:45:44;;;;;;;6.10;2.10;;;15.60;99.90;;;;;;4993485;28;20169;-69
2023/07/18 05:48:09;;;;;;;9.63;2.37;;;16.00;99.90;;;;;;4993500;28;20451;-69
2023/07/18 05:50:35;;;;;;;5.53;1.90;;;16.30;99.90;;;;;;4993623;28;20204;-69
2023/07/18 05:53:01;;;;;;;2.30;1.80;;;16.80;99.90;;;;;;4993587;28;20175;-69
2023/07/18 05:55:27;;;;;;;4.77;2.10;;;17.50;99.90;;;;;;4993275;28;20211;-69
2023/07/18 05:57:53;;;;;;;3.73;1.80;;;18.00;99.90;;;;;;4993405;28;20189;-68
2023/07/18 06:00:19;;;;;;;4.07;1.73;;;18.50;99.90;;;;;;4993316;28;20487;-69
2023/07/18 06:02:47;;;;;;;2.70;1.80;;;18.80;99.90;;;;;;4993329;28;20834;-69
2023/07/18 06:05:13;;;;;;;1.90;1.50;;;19.10;99.90;;;;;;4993203;28;20175;-69
2023/07/18 06:07:39;;;;;;;4.10;1.70;;;19.30;99.90;;;;;;4993155;28;20822;-69
2023/07/18 06:10:05;;;;;;;2.83;2.20;;;19.30;99.90;;;;;;4993304;28;20414;-69
2023/07/18 06:12:31;;;;;;;2.03;1.70;;;19.50;99.90;;;;;;4993287;28;20197;-69
2023/07/18 06:14:56;;;;;;;2.87;1.87;;;20.10;99.90;;;;;;4993168;28;20913;-69
2023/07/18 06:17:22;;;;;;;2.90;1.90;;;20.80;99.90;;;;;;4993213;28;20631;-69
2023/07/18 06:19:47;;;;;;;2.07;1.63;;;21.60;99.90;;;;;;4993146;28;20669;-69
2023/07/18 06:22:13;;;;;;;3.90;2.50;;;22.50;99.90;;;;;;4992937;28;20228;-69
2023/07/18 06:24:38;;;;;;;4.37;2.27;;;23.00;99.90;;;;;;4993159;28;20169;-69
2023/07/18 06:27:05;;;;;;;14.80;8.50;;;23.50;97.00;;;;;;4993009;28;20180;-68
2023/07/18 06:29:31;;;;;;;3.70;2.40;;;24.10;91.60;;;;;;4992943;28;20192;-66
2023/07/18 06:31:57;;;;;;;3.83;3.43;;;24.70;80.70;;;;;;4992909;28;20404;-67
2023/07/18 06:34:22;;;;;;;3.20;2.20;;;25.70;75.10;;;;;;4992893;28;20821;-67
2023/07/18 06:36:48;;;;;;;1.67;1.43;;;26.90;71.00;;;;;;4992603;28;20180;-67
2023/07/18 06:39:16;;;;;;;2.67;1.73;;;27.90;61.00;;;;;;4992635;28;20185;-67
2023/07/18 06:41:43;;;;;;;7.10;1.90;;;28.60;54.90;;;;;;4993018;28;20210;-67
2023/07/18 06:44:11;;;;;;;1.97;1.30;;;29.20;49.60;;;;;;4992854;28;20412;-67
2023/07/18 06:46:37;;;;;;;2.27;1.57;;;29.90;48.40;;;;;;4992621;28;20443;-66
2023/07/18 06:49:03;;;;;;;4.30;1.33;;;30.70;46.90;;;;;;4992698;28;20448;-67
2023/07/18 06:51:28;;;;;;;2.27;1.63;;;31.40;45.20;;;;;;4992713;28;20601;-67
2023/07/18 06:53:54;;;;;;;2.60;2.03;;;32.00;43.30;;;;;;4992661;28;20257;-67
2023/07/18 06:56:20;;;;;;;4.13;2.03;;;32.20;41.00;;;;;;4992431;28;20167;-67
2023/07/18 06:58:45;;;;;;;3.07;2.27;;;32.60;39.80;;;;;;4992645;28;20240;-67
2023/07/18 07:01:11;;;;;;;2.57;2.03;;;32.80;39.70;;;;;;4992540;28;20200;-67
2023/07/18 07:03:37;;;;;;;4.33;1.90;;;33.40;38.90;;;;;;4992710;28;20175;-67
2023/07/18 07:06:09;;;;;;;2.13;1.40;;;32.70;35.80;;;;;;4992215;28;20169;-68
2023/07/18 07:08:35;;;;;;;1.93;1.70;;;32.90;36.80;;;;;;4992445;28;20558;-68
2023/07/18 07:11:05;;;;;;;1.97;1.50;;;33.20;36.10;;;;;;4992582;28;20467;-68
2023/07/18 07:13:31;;;;;;;2.60;1.57;;;34.00;36.60;;;;;;4992562;28;20230;-67
2023/07/18 07:15:57;;;;;;;2.77;1.80;;;34.20;35.20;;;;;;4992152;28;20407;-68
2023/07/18 07:18:22;;;;;;;2.83;1.40;;;34.90;34.00;;;;;;4992422;28;20438;-68
2023/07/18 07:20:48;;;;;;;1.83;1.40;;;35.10;34.30;;;;;;4992375;28;20201;-67
2023/07/18 07:23:14;;;;;;;1.57;1.47;;;34.60;31.80;;;;;;4992445;28;20493;-67
2023/07/18 07:25:42;;;;;;;2.07;1.60;;;34.40;33.00;;;;;;4992275;28;20166;-67
2023/07/18 07:28:09;;;;;;;2.80;1.73;;;34.80;31.70;;;;;;4992574;28;20427;-67
2023/07/18 07:30:34;;;;;;;2.50;1.73;;;34.90;32.00;;;;;;4992592;28;20404;-67
2023/07/18 07:33:00;;;;;;;7.80;2.17;;;34.20;31.60;;;;;;4993891;28;20411;-67
2023/07/18 07:35:25;;;;;;;3.53;2.00;;;33.50;32.20;;;;;;4996014;28;20172;-66
2023/07/18 07:37:51;;;;;;;1.83;1.70;;;32.90;32.90;;;;;;4995988;28;20655;-68
2023/07/18 07:40:18;;;;;;;1.70;1.50;;;33.30;34.10;;;;;;4996104;28;20172;-68
2023/07/18 07:42:46;;;;;;;2.13;1.30;;;33.80;32.60;;;;;;4995935;28;20495;-67
2023/07/18 07:45:12;;;;;;;4.93;1.73;;;33.80;32.70;;;;;;4995693;28;20482;-67
2023/07/18 07:47:38;;;;;;;4.20;2.30;;;33.70;32.20;;;;;;4995876;28;20443;-68
2023/07/18 07:50:05;;;;;;;4.63;2.07;;;34.30;32.90;;;;;;4995922;28;20438;-68
2023/07/18 07:52:31;;;;;;;4.30;2.57;;;34.60;32.80;;;;;;4995814;28;20408;-67
2023/07/18 07:54:57;;;;;;;3.07;2.27;;;35.40;33.60;;;;;;4995580;28;20901;-68
2023/07/18 07:57:23;;;;;;;2.93;2.60;;;36.80;32.80;;;;;;4995700;28;20186;-67
2023/07/18 07:59:48;;;;;;;2.33;2.00;;;37.40;31.00;;;;;;4995318;28;20243;-67
2023/07/18 08:02:14;;;;;;;2.53;2.20;;;37.20;31.30;;;;;;4995531;28;20299;-65
2023/07/18 08:04:41;;;;;;;4.30;2.73;;;37.10;31.60;;;;;;4995106;28;20573;-66
2023/07/18 08:07:08;;;;;;;6.73;2.33;;;37.20;30.80;;;;;;4993834;28;20431;-65
2023/07/18 08:09:33;;;;;;;5.43;2.40;;;37.30;30.60;;;;;;4994743;28;20852;-65
2023/07/18 08:11:59;;;;;;;2.07;1.87;;;38.70;31.00;;;;;;4995164;28;20408;-65
2023/07/18 08:14:24;;;;;;;2.23;1.97;;;39.30;29.80;;;;;;4995143;28;20181;-66
2023/07/18 08:16:50;;;;;;;3.60;2.30;;;39.50;29.30;;;;;;4994841;28;20188;-65
2023/07/18 08:19:16;;;;;;;3.70;2.10;;;39.50;28.40;;;;;;4995004;28;20204;-65
2023/07/18 08:21:41;;;;;;;2.83;2.27;;;39.30;28.30;;;;;;4994525;28;20685;-65
2023/07/18 08:24:07;;;;;;;3.73;2.00;;;39.20;28.90;;;;;;4994393;28;20670;-65
2023/07/18 08:26:33;;;;;;;2.97;2.30;;;39.20;28.90;;;;;;4994390;28;20215;-66
2023/07/18 08:28:59;;;;;;;2.77;2.40;;;38.90;28.90;;;;;;4994471;28;20769;-65
2023/07/18 08:31:24;;;;;;;3.73;2.47;;;38.20;29.20;;;;;;4994764;28;20461;-65
2023/07/18 08:33:50;;;;;;;5.97;2.40;;;37.30;29.80;;;;;;4995033;28;20173;-65
2023/07/18 08:36:15;;;;;;;3.90;3.60;;;36.70;30.40;;;;;;4994605;28;20195;-64
2023/07/18 08:38:46;;;;;;;3.13;2.50;;;35.60;29.80;;;;;;4994852;28;20275;-65
2023/07/18 08:41:13;;;;;;;2.40;2.20;;;34.90;30.70;;;;;;4994787;28;20275;-65
2023/07/18 08:43:38;;;;;;;2.73;2.10;;;34.50;32.10;;;;;;4994721;28;20471;-73
2023/07/18 08:46:04;;;;;;;2.83;2.17;;;33.80;32.80;;;;;;4994513;28;20420;-73
2023/07/18 08:48:31;;;;;;;3.13;2.27;;;33.80;33.60;;;;;;4993578;28;20188;-73
2023/07/18 08:50:59;;;;;;;2.80;2.40;;;34.50;34.00;;;;;;4994564;28;20404;-74
2023/07/18 08:53:25;;;;;;;8.53;2.00;;;35.10;33.80;;;;;;4994748;28;20438;-74
2023/07/18 08:55:52;;;;;;;2.17;1.97;;;35.60;31.30;;;;;;4994444;28;20413;-74
2023/07/18 08:58:20;;;;;;;3.00;1.93;;;36.60;32.50;;;;;;4994572;28;20430;-72
2023/07/18 09:00:45;;;;;;;5.27;2.00;;;38.20;29.60;;;;;;4994476;28;20546;-72
2023/07/18 09:03:11;;;;;;;3.67;2.47;;;39.20;27.50;;;;;;4994485;28;20484;-73
2023/07/18 09:05:37;;;;;;;2.03;1.70;;;39.40;26.50;;;;;;4994361;28;20192;-73
2023/07/18 09:08:05;;;;;;;2.13;2.00;;;40.10;27.30;;;;;;4994373;28;20598;-74
2023/07/18 09:10:32;;;;;;;3.47;3.17;;;40.90;26.70;;;;;;4994201;28;20400;-75
2023/07/18 09:13:02;;;;;;;2.17;1.97;;;41.70;26.00;;;;;;4999314;28;20398;-73
2023/07/18 09:15:28;;;;;;;3.37;2.20;;;41.90;25.70;;;;;;5013484;28;20469;-73
2023/07/18 09:17:55;;;;;;;3.20;1.80;;;41.30;25.10;;;;;;5013547;28;21068;-72
2023/07/18 09:20:21;;;;;;;2.80;2.10;;;40.20;25.00;;;;;;5012665;28;20740;-72
2023/07/18 09:22:47;;;;;;;2.30;2.10;;;38.90;25.20;;;;;;5013380;28;20433;-72
2023/07/18 09:25:16;;;;;;;3.60;3.30;;;38.20;26.20;;;;;;5013270;28;20407;-71
2023/07/18 09:27:42;;;;;;;3.30;2.47;;;38.40;27.40;;;;;;5013161;28;20491;-72
2023/07/18 09:30:08;;;;;;;4.03;2.50;;;38.40;27.70;;;;;;5013301;28;20503;-71
2023/07/18 09:32:34;;;;;;;3.37;2.03;;;37.60;26.00;;;;;;5013016;28;20410;-71
2023/07/18 09:35:00;;;;;;;2.57;2.37;;;36.70;27.30;;;;;;5013220;28;20411;-72
2023/07/18 09:37:26;;;;;;;2.20;1.60;;;35.90;27.90;;;;;;5012620;28;20173;-72
2023/07/18 09:39:52;;;;;;;8.90;1.83;;;35.00;28.30;;;;;;4992570;28;20411;-72
2023/07/18 09:42:19;;;;;;;2.20;2.00;;;33.80;28.30;;;;;;4993368;28;20211;-71
2023/07/18 09:44:49;;;;;;;3.57;2.80;;;32.90;29.30;;;;;;4993657;28;20436;-73
2023/07/18 09:47:15;;;;;;;3.40;2.90;;;32.40;30.70;;;;;;4993421;28;20400;-71
2023/07/18 09:49:44;;;;;;;7.10;2.30;;;32.00;31.60;;;;;;4993595;28;20436;-70
2023/07/18 09:52:11;;;;;;;2.37;1.80;;;31.80;32.50;;;;;;4993207;28;20443;-71
2023/07/18 09:54:38;;;;;;;2.53;2.33;;;32.00;33.30;;;;;;4993331;28;20465;-71
2023/07/18 09:57:10;;;;;;;3.10;1.60;;;32.40;33.40;;;;;;4992460;28;20415;-72
2023/07/18 09:59:37;;;;;;;4.03;1.60;;;33.20;32.10;;;;;;4992669;28;20523;-72
2023/07/18 10:02:06;;;;;;;2.07;1.80;;;34.60;31.50;;;;;;4992844;28;20558;-74
2023/07/18 10:04:34;;;;;;;4.17;1.90;;;35.40;31.00;;;;;;4993229;28;20416;-73
2023/07/18 10:07:02;;;;;;;4.03;1.90;;;35.80;30.70;;;;;;4992786;28;20424;-73
2023/07/18 10:09:28;;;;;;;1.70;1.60;;;35.70;30.00;;;;;;4992851;28;20416;-73
2023/07/18 10:12:03;;;;;;;5.47;4.30;;;34.90;29.30;;;;;;4993122;28;20378;-75
2023/07/18 10:14:48;;;;;;;5.07;2.33;;;34.20;29.90;;;;;;4993190;28;20418;-74
2023/07/18 10:17:33;;;;;;;2.80;1.97;;;33.40;30.50;;;;;;4992855;28;20415;-73
2023/07/18 10:19:58;;;;;;;2.23;2.00;;;32.70;31.90;;;;;;4993149;28;20822;-74
2023/07/18 10:22:33;;;;;;;2.30;1.90;;;32.30;33.60;;;;;;4993019;28;20448;-74
2023/07/18 10:25:00;;;;;;;1.93;1.53;;;32.50;34.60;;;;;;4992924;28;20165;-74
2023/07/18 10:27:39;;;;;;;1.93;1.73;;;33.60;35.00;;;;;;4992877;28;20415;-73
2023/07/18 10:30:05;;;;;;;2.07;1.57;;;35.60;34.60;;;;;;4993048;28;20407;-75
2023/07/18 10:32:32;;;;;;;3.40;2.43;;;36.90;32.20;;;;;;4993005;28;20443;-75
2023/07/18 10:35:00;;;;;;;2.43;1.73;;;36.70;28.80;;;;;;4992774;28;20414;-74
2023/07/18 10:37:26;;;;;;;2.13;1.80;;;35.90;29.10;;;;;;4992809;28;20884;-74
2023/07/18 10:39:53;;;;;;;2.00;1.83;;;35.20;30.60;;;;;;4992975;28;20386;-74
2023/07/18 10:42:21;;;;;;;2.00;1.80;;;34.70;31.70;;;;;;4992512;28;20448;-75
2023/07/18 10:45:06;;;;;;;3.43;2.00;;;34.80;32.60;;;;;;4992851;28;20927;-75
2023/07/18 10:47:35;;;;;;;2.20;1.90;;;35.40;32.70;;;;;;4992680;28;20880;-73
2023/07/18 10:50:02;;;;;;;10.23;2.40;;;36.90;32.10;;;;;;4991410;28;20407;-73
2023/07/18 10:52:28;;;;;;;3.20;2.07;;;39.60;30.00;;;;;;4992716;28;20452;-74
2023/07/18 10:54:56;;;;;;;2.37;2.17;;;40.70;28.00;;;;;;4992481;28;20935;-73
2023/07/18 10:57:26;;;;;;;2.20;1.80;;;40.40;27.70;;;;;;4992312;28;20734;-74
2023/07/18 10:59:53;;;;;;;4.10;1.90;;;39.70;27.80;;;;;;4992607;28;20454;-74
2023/07/18 11:02:20;;;;;;;6.00;5.07;;;38.40;25.80;;;;;;4992533;28;20951;-73
2023/07/18 11:04:46;;;;;;;4.50;3.03;;;37.60;27.00;;;;;;4992789;28;20405;-74
2023/07/18 11:07:12;;;;;;;1.97;1.87;;;37.30;28.10;;;;;;4992475;28;20942;-74
2023/07/18 11:09:37;;;;;;;2.80;1.90;;;37.70;28.20;;;;;;4996691;28;20428;-74
2023/07/18 11:12:04;;;;;;;2.53;2.17;;;38.50;27.40;;;;;;4996589;28;20172;-74
2023/07/18 11:14:39;;;;;;;2.10;2.00;;;40.00;26.40;;;;;;4996550;28;20164;-73
2023/07/18 11:17:16;;;;;;;3.57;2.20;;;42.20;26.40;;;;;;4996254;28;20413;-72
2023/07/18 11:19:42;;;;;;;3.43;2.60;;;44.40;24.80;;;;;;4996485;28;20776;-74
2023/07/18 11:22:10;;;;;;;2.63;2.43;;;46.00;23.20;;;;;;4996355;28;20437;-74
2023/07/18 11:24:36;;;;;;;2.93;2.73;;;47.40;23.30;;;;;;4995024;28;20223;-74
2023/07/18 11:27:17;;;;;;;4.43;2.73;;;47.70;21.90;;;;;;4996011;28;20748;-74
2023/07/18 11:30:03;;;;;;;6.40;2.33;;;47.60;22.20;;;;;;4996501;28;20451;-73
2023/07/18 11:32:43;;;;;;;3.00;2.80;;;47.40;21.30;;;;;;4996322;28;20432;-74
2023/07/18 11:35:10;;;;;;;2.40;2.20;;;47.40;20.90;;;;;;4995900;28;20400;-74
2023/07/18 11:37:38;;;;;;;2.20;2.00;;;47.10;20.20;;;;;;4995818;28;20769;-75
2023/07/18 11:40:08;;;;;;;2.20;2.10;;;47.30;20.50;;;;;;4996027;28;20462;-75
2023/07/18 11:42:49;;;;;;;2.60;2.40;;;48.50;22.00;;;;;;4994999;28;20474;-74
2023/07/18 11:45:20;;;;;;;2.83;2.63;;;49.60;20.20;;;;;;4995937;28;20404;-75
2023/07/18 11:47:53;;;;;;;2.30;2.10;;;50.60;20.00;;;;;;4995769;28;20486;-74
2023/07/18 11:50:20;;;;;;;2.70;2.50;;;51.40;20.20;;;;;;4995968;28;20416;-76
2023/07/18 11:52:50;;;;;;;4.60;2.60;;;52.40;20.10;;;;;;4995922;28;20454;-75
2023/07/18 11:55:17;;;;;;;5.03;3.80;;;52.20;18.10;;;;;;4995479;28;20408;-76
2023/07/18 11:57:43;;;;;;;5.77;2.73;;;51.80;18.90;;;;;;4995466;28;20491;-75
2023/07/18 12:00:10;;;;;;;2.87;2.67;;;51.50;18.00;;;;;;4994110;28;20415;-76
2023/07/18 12:02:36;;;;;;;2.83;2.63;;;51.60;18.90;;;;;;4995910;28;20486;-75
2023/07/18 12:05:03;;;;;;;2.53;2.33;;;52.20;18.40;;;;;;4995399;28;20408;-75
2023/07/18 12:07:28;;;;;;;2.43;2.23;;;52.00;17.30;;;;;;4995349;28;20268;-75
2023/07/18 12:09:54;;;;;;;3.13;2.93;;;52.60;18.60;;;;;;4995465;28;21013;-75
2023/07/18 12:12:21;;;;;;;4.57;2.83;;;53.40;18.80;;;;;;4995473;28;20652;-76
2023/07/18 12:14:46;;;;;;;4.17;2.83;;;54.10;18.80;;;;;;4995358;28;20203;-75
2023/07/18 12:17:12;;;;;;;2.93;2.73;;;53.90;17.20;;;;;;4995085;28;20444;-74
2023/07/18 12:19:38;;;;;;;2.90;2.70;;;53.90;18.00;;;;;;4994818;28;20188;-76
2023/07/18 12:22:03;;;;;;;2.77;2.57;;;53.50;18.10;;;;;;4995240;28;20283;-75
2023/07/18 12:24:29;;;;;;;6.90;6.33;;;51.70;17.90;;;;;;4995215;28;20176;-75
2023/07/18 12:26:54;;;;;;;4.70;2.70;;;49.90;18.90;;;;;;4995055;28;20172;-74
2023/07/18 12:29:20;;;;;;;2.60;2.40;;;50.00;19.90;;;;;;4995022;28;20612;-75
2023/07/18 12:31:49;;;;;;;2.50;2.23;;;50.90;19.20;;;;;;4995186;28;20169;-75
2023/07/18 12:34:15;;;;;;;2.40;2.17;;;51.70;19.40;;;;;;4995128;28;20169;-75
2023/07/18 12:36:40;;;;;;;4.30;2.83;;;52.50;18.90;;;;;;4994831;28;20415;-75
2023/07/18 12:39:06;;;;;;;2.93;2.73;;;53.10;18.80;;;;;;4994872;28;20858;-76
2023/07/18 12:41:31;;;;;;;2.47;2.27;;;53.70;19.20;;;;;;4994837;28;20196;-75
2023/07/18 12:43:57;;;;;;;3.73;3.43;;;54.30;18.90;;;;;;4994885;28;20256;-76
2023/07/18 12:46:26;;;;;;;2.83;2.63;;;54.60;18.60;;;;;;4994615;28;20165;-76